Time;durP1;ratioP1;P1;durP2;ratioP2;P2;SDS_P1;SDS_P2;PMS_P1;PMS_P2;Temp;Humidity;BMP_temperature;BMP_pressure;BME280_temperature;BME280_humidity;BME280_pressure;Samples;Min_cycle;Max_cycle;Signal;HPM_P1;HPM_P2
2023/03/21 00:01:32;;;;;;;146.05;28.27;;;;;;;;;;5086413;28;20048;-64
2023/03/21 00:03:59;;;;;;;184.95;28.58;;;;;;;;;;5086990;28;20051;-64
2023/03/21 00:06:26;;;;;;;155.02;27.17;;;;;;;;;;5088720;28;20048;-64
2023/03/21 00:08:54;;;;;;;148.45;26.48;;;;;;;;;;5086879;28;20048;-64
2023/03/21 00:11:21;;;;;;;171.35;26.65;;;;;;;;;;5069720;28;20143;-64
2023/03/21 00:13:52;;;;;;;188.23;27.75;;;;;;;;;;5088858;28;20088;-64
2023/03/21 00:16:19;;;;;;;181.20;28.42;;;;;;;;;;5087000;28;20087;-64
2023/03/21 00:18:51;;;;;;;214.82;28.60;;;;;;;;;;5087318;28;20044;-64
2023/03/21 00:21:19;;;;;;;219.88;30.85;;;;;;;;;;5085895;28;20044;-64
2023/03/21 00:23:46;;;;;;;225.02;31.38;;;;;;;;;;5069845;28;20059;-64
2023/03/21 00:26:14;;;;;;;232.77;32.58;;;;;;;;;;5086466;28;20052;-64
2023/03/21 00:28:42;;;;;;;251.63;33.65;;;;;;;;;;5085406;28;20044;-64
2023/03/21 00:31:11;;;;;;;248.65;32.63;;;;;;;;;;5084284;28;20506;-64
2023/03/21 00:33:38;;;;;;;230.43;32.60;;;;;;;;;;5081892;28;20067;-64
2023/03/21 00:36:06;;;;;;;206.95;31.33;;;;;;;;;;5080181;28;20149;-64
2023/03/21 00:38:33;;;;;;;203.85;31.85;;;;;;;;;;5076419;28;20511;-64
2023/03/21 00:41:01;;;;;;;199.20;31.88;;;;;;;;;;5076358;28;20083;-64
2023/03/21 00:43:29;;;;;;;152.05;29.63;;;;;;;;;;5082563;28;20089;-64
2023/03/21 00:45:57;;;;;;;151.25;28.42;;;;;;;;;;5076910;28;20040;-64
2023/03/21 00:48:26;;;;;;;156.68;29.30;;;;;;;;;;5085768;28;20102;-64
2023/03/21 00:50:54;;;;;;;147.80;27.40;;;;;;;;;;5064592;28;20066;-64
2023/03/21 00:53:21;;;;;;;184.30;29.48;;;;;;;;;;5068910;28;20098;-64
2023/03/21 00:55:49;;;;;;;181.27;30.27;;;;;;;;;;5084428;28;20043;-64
2023/03/21 00:58:16;;;;;;;198.63;31.35;;;;;;;;;;5084677;28;20515;-64
2023/03/21 01:00:45;;;;;;;230.75;34.80;;;;;;;;;;5087660;28;20384;-64
2023/03/21 01:03:13;;;;;;;240.95;33.42;;;;;;;;;;5084758;28;20322;-64
2023/03/21 01:08:28;;;;;;;235.60;34.92;;;;;;;;;;5087079;28;20063;-64
2023/03/21 01:10:56;;;;;;;253.80;40.08;;;;;;;;;;5082663;28;20048;-64
2023/03/21 01:13:25;;;;;;;259.23;37.78;;;;;;;;;;5085316;28;20052;-64
2023/03/21 01:15:53;;;;;;;258.13;35.15;;;;;;;;;;5080836;28;20121;-64
2023/03/21 01:18:23;;;;;;;264.33;35.28;;;;;;;;;;5083803;28;20044;-64
2023/03/21 01:20:52;;;;;;;239.48;36.30;;;;;;;;;;5083257;28;20044;-64
2023/03/21 01:23:20;;;;;;;221.95;34.78;;;;;;;;;;5085624;28;20044;-63
2023/03/21 01:25:48;;;;;;;224.23;36.35;;;;;;;;;;5067226;28;20095;-64
2023/03/21 01:28:16;;;;;;;268.60;37.45;;;;;;;;;;5088051;28;20432;-64
2023/03/21 01:30:46;;;;;;;252.73;38.72;;;;;;;;;;5081355;28;20047;-64
2023/03/21 01:33:13;;;;;;;282.42;41.50;;;;;;;;;;5085365;28;20055;-64
2023/03/21 01:35:40;;;;;;;278.85;41.75;;;;;;;;;;5084629;28;20045;-64
2023/03/21 01:38:09;;;;;;;261.17;43.17;;;;;;;;;;5076607;28;20436;-64
2023/03/21 01:40:37;;;;;;;294.50;44.42;;;;;;;;;;5083242;28;20094;-64
2023/03/21 01:43:04;;;;;;;300.08;44.58;;;;;;;;;;5083847;28;20056;-64
2023/03/21 01:45:51;;;;;;;291.08;46.75;;;;;;;;;;5080837;28;20048;-64
2023/03/21 01:48:19;;;;;;;294.70;46.92;;;;;;;;;;5067643;28;20052;-64
2023/03/21 01:50:46;;;;;;;309.98;49.42;;;;;;;;;;5082785;28;20123;-64
2023/03/21 01:53:15;;;;;;;305.48;52.15;;;;;;;;;;5087159;28;20128;-64
2023/03/21 01:55:43;;;;;;;311.60;50.67;;;;;;;;;;5089220;28;20417;-64
2023/03/21 01:58:12;;;;;;;318.88;54.17;;;;;;;;;;5088833;28;20458;-64
2023/03/21 02:00:40;;;;;;;307.27;53.85;;;;;;;;;;5088357;28;20037;-64
2023/03/21 02:03:10;;;;;;;301.33;53.75;;;;;;;;;;5085565;28;20131;-64
2023/03/21 02:05:40;;;;;;;328.65;57.13;;;;;;;;;;5090193;28;20080;-63
2023/03/21 02:08:07;;;;;;;327.17;56.65;;;;;;;;;;5089564;28;20392;-64
2023/03/21 02:10:36;;;;;;;349.13;57.15;;;;;;;;;;5086351;28;20044;-64
2023/03/21 02:13:08;;;;;;;336.27;57.80;;;;;;;;;;5091096;28;20117;-64
2023/03/21 02:15:36;;;;;;;320.10;55.88;;;;;;;;;;5089623;28;20047;-64
2023/03/21 02:18:07;;;;;;;299.52;55.17;;;;;;;;;;5089851;28;20048;-64
2023/03/21 02:20:42;;;;;;;251.85;49.80;;;;;;;;;;5085537;28;20530;-63
2023/03/21 02:23:24;;;;;;;251.80;48.20;;;;;;;;;;5090068;28;20050;-64
2023/03/21 02:26:11;;;;;;;259.98;47.50;;;;;;;;;;5085834;28;20127;-63
2023/03/21 02:28:40;;;;;;;260.20;47.00;;;;;;;;;;5081191;28;20411;-64
2023/03/21 02:31:35;;;;;;;314.42;51.13;;;;;;;;;;5061138;28;20422;-64
2023/03/21 02:34:20;;;;;;;338.65;52.22;;;;;;;;;;5036735;28;20126;-63
2023/03/21 02:37:03;;;;;;;375.45;54.15;;;;;;;;;;5087611;28;20052;-64
2023/03/21 02:39:38;;;;;;;336.95;51.20;;;;;;;;;;5091062;28;20480;-64
2023/03/21 02:42:08;;;;;;;403.73;50.55;;;;;;;;;;5082651;28;20052;-64
2023/03/21 02:44:40;;;;;;;396.20;52.90;;;;;;;;;;5085915;28;20503;-64
2023/03/21 02:47:10;;;;;;;337.13;52.55;;;;;;;;;;5088834;28;20075;-63
2023/03/21 02:49:42;;;;;;;355.55;50.28;;;;;;;;;;5078393;28;20058;-64
2023/03/21 02:52:12;;;;;;;313.42;51.13;;;;;;;;;;5087143;28;20451;-64
2023/03/21 02:54:42;;;;;;;288.65;48.67;;;;;;;;;;5085045;28;20498;-64
2023/03/21 02:57:10;;;;;;;291.95;47.83;;;;;;;;;;5085213;28;20415;-63
2023/03/21 02:59:38;;;;;;;322.58;49.33;;;;;;;;;;5085106;28;20054;-63
2023/03/21 03:02:06;;;;;;;327.75;50.15;;;;;;;;;;5089690;28;20070;-64
2023/03/21 03:04:33;;;;;;;232.13;47.47;;;;;;;;;;5086632;28;20044;-63
2023/03/21 03:07:13;;;;;;;238.15;44.95;;;;;;;;;;5086259;28;20047;-64
2023/03/21 03:09:46;;;;;;;195.35;42.65;;;;;;;;;;5080491;28;20093;-63
2023/03/21 03:12:19;;;;;;;205.43;42.00;;;;;;;;;;5085730;28;20067;-64
2023/03/21 03:14:46;;;;;;;;;;;;;;;;;;5082671;28;20044;-63
2023/03/21 03:17:18;;;;;;;174.23;38.53;;;;;;;;;;5078132;28;20286;-64
2023/03/21 03:19:50;;;;;;;152.07;36.58;;;;;;;;;;5059264;28;20067;-64
2023/03/21 03:22:21;;;;;;;169.98;36.28;;;;;;;;;;5083990;28;20098;-64
2023/03/21 03:24:55;;;;;;;174.30;37.92;;;;;;;;;;5088401;28;20063;-63
2023/03/21 03:27:25;;;;;;;174.40;39.47;;;;;;;;;;5087136;28;20052;-63
2023/03/21 03:29:52;;;;;;;174.68;36.58;;;;;;;;;;5084037;28;20051;-64
2023/03/21 03:32:22;;;;;;;176.18;36.88;;;;;;;;;;5070633;28;20062;-64
2023/03/21 03:34:55;;;;;;;179.48;37.38;;;;;;;;;;5079494;28;20388;-63
2023/03/21 03:37:26;;;;;;;207.27;39.53;;;;;;;;;;5083152;28;20102;-64
2023/03/21 03:39:56;;;;;;;196.77;37.92;;;;;;;;;;5088724;28;20051;-63
2023/03/21 03:42:25;;;;;;;195.88;38.65;;;;;;;;;;5084041;28;20071;-63
2023/03/21 03:44:52;;;;;;;187.50;37.17;;;;;;;;;;5079798;28;20051;-63
2023/03/21 03:47:22;;;;;;;193.85;37.90;;;;;;;;;;5088680;28;20071;-63
2023/03/21 03:49:53;;;;;;;212.57;37.95;;;;;;;;;;5083478;28;20044;-64
2023/03/21 03:52:22;;;;;;;251.60;44.30;;;;;;;;;;5069439;28;20051;-63
2023/03/21 03:54:51;;;;;;;268.02;41.63;;;;;;;;;;5088296;28;20518;-64
2023/03/21 03:57:19;;;;;;;307.27;43.92;;;;;;;;;;5084895;28;20063;-64
2023/03/21 03:59:47;;;;;;;314.88;46.15;;;;;;;;;;5079403;28;20048;-63
2023/03/21 04:02:16;;;;;;;285.70;43.63;;;;;;;;;;5077098;28;20078;-64
2023/03/21 04:04:43;;;;;;;311.48;44.15;;;;;;;;;;5077711;28;20044;-63
2023/03/21 04:07:10;;;;;;;342.67;44.72;;;;;;;;;;5084360;28;20449;-64
2023/03/21 04:09:37;;;;;;;315.58;42.30;;;;;;;;;;5082895;28;20048;-63
2023/03/21 04:12:06;;;;;;;283.55;42.60;;;;;;;;;;5084732;28;20062;-63
2023/03/21 04:14:33;;;;;;;259.27;40.88;;;;;;;;;;5083190;28;20048;-64
2023/03/21 04:17:01;;;;;;;332.38;43.65;;;;;;;;;;5084011;28;20059;-63
2023/03/21 04:19:28;;;;;;;254.68;40.63;;;;;;;;;;5066334;28;20064;-64
2023/03/21 04:21:56;;;;;;;274.60;40.55;;;;;;;;;;5087839;28;20127;-63
2023/03/21 04:24:23;;;;;;;262.40;41.10;;;;;;;;;;5085777;28;20062;-63
2023/03/21 04:26:52;;;;;;;274.05;39.83;;;;;;;;;;5088843;28;20047;-63
2023/03/21 04:29:21;;;;;;;275.52;39.92;;;;;;;;;;5060205;28;20109;-63
2023/03/21 04:31:49;;;;;;;280.67;39.63;;;;;;;;;;5080118;28;20109;-63
2023/03/21 04:34:16;;;;;;;262.30;39.75;;;;;;;;;;5083956;28;20577;-63
2023/03/21 04:36:44;;;;;;;273.58;41.88;;;;;;;;;;5076133;28;20051;-64
2023/03/21 04:39:13;;;;;;;254.15;39.97;;;;;;;;;;5084175;28;20434;-63
2023/03/21 04:41:41;;;;;;;236.82;38.90;;;;;;;;;;5080422;28;20048;-64
2023/03/21 04:44:08;;;;;;;189.55;36.20;;;;;;;;;;5080516;28;20130;-63
2023/03/21 04:46:37;;;;;;;195.30;34.83;;;;;;;;;;5087540;28;20063;-64
2023/03/21 04:49:05;;;;;;;193.55;33.60;;;;;;;;;;5086213;28;20475;-64
2023/03/21 04:51:33;;;;;;;146.10;29.92;;;;;;;;;;5084650;28;20101;-64
2023/03/21 04:54:00;;;;;;;146.30;31.35;;;;;;;;;;5075377;28;20044;-63
2023/03/21 04:56:31;;;;;;;141.27;32.10;;;;;;;;;;5081526;28;20040;-64
2023/03/21 04:58:59;;;;;;;147.55;29.40;;;;;;;;;;5078989;28;20085;-64
2023/03/21 05:01:29;;;;;;;124.03;29.58;;;;;;;;;;5083356;28;20052;-64
2023/03/21 05:03:59;;;;;;;120.72;27.55;;;;;;;;;;5079093;28;20125;-64
2023/03/21 05:06:26;;;;;;;130.05;29.17;;;;;;;;;;5082364;28;20044;-64
2023/03/21 05:08:55;;;;;;;119.75;26.52;;;;;;;;;;5081423;28;20458;-64
2023/03/21 05:11:22;;;;;;;100.03;27.55;;;;;;;;;;5084628;28;20056;-64
2023/03/21 05:13:50;;;;;;;108.65;27.83;;;;;;;;;;5080996;28;20040;-64
2023/03/21 05:16:17;;;;;;;104.00;27.90;;;;;;;;;;5085162;28;20048;-64
2023/03/21 05:18:44;;;;;;;107.40;27.48;;;;;;;;;;5060585;28;20055;-64
2023/03/21 05:21:16;;;;;;;108.93;27.90;;;;;;;;;;5083127;28;20053;-64
2023/03/21 05:23:44;;;;;;;100.68;26.35;;;;;;;;;;5080062;28;20048;-64
2023/03/21 05:26:11;;;;;;;86.57;26.70;;;;;;;;;;5082892;28;20052;-64
2023/03/21 05:28:38;;;;;;;95.93;26.80;;;;;;;;;;5065324;28;20052;-65
2023/03/21 05:31:06;;;;;;;94.18;28.50;;;;;;;;;;5087429;28;20491;-64
2023/03/21 05:33:34;;;;;;;114.97;29.52;;;;;;;;;;5086550;28;20044;-65
2023/03/21 05:36:01;;;;;;;128.80;31.02;;;;;;;;;;5089211;28;20048;-64
2023/03/21 05:38:30;;;;;;;119.05;30.75;;;;;;;;;;5091674;28;20407;-63
2023/03/21 05:40:57;;;;;;;107.50;30.80;;;;;;;;;;5087222;28;20055;-64
2023/03/21 05:43:24;;;;;;;107.90;29.88;;;;;;;;;;5085830;28;20056;-64
2023/03/21 05:45:51;;;;;;;114.18;31.55;;;;;;;;;;5086348;28;20048;-64
2023/03/21 05:48:19;;;;;;;119.07;31.92;;;;;;;;;;5091112;28;20414;-64
2023/03/21 05:50:46;;;;;;;110.32;29.67;;;;;;;;;;5089432;28;20131;-64
2023/03/21 05:53:13;;;;;;;89.03;28.92;;;;;;;;;;5089661;28;20078;-63
2023/03/21 05:55:42;;;;;;;107.05;31.27;;;;;;;;;;5071577;28;20491;-63
2023/03/21 05:58:09;;;;;;;98.85;28.70;;;;;;;;;;5089765;28;20106;-64
2023/03/21 06:00:36;;;;;;;89.45;29.35;;;;;;;;;;5087833;28;20508;-64
2023/03/21 06:03:04;;;;;;;92.68;28.42;;;;;;;;;;5087824;28;20062;-64
2023/03/21 06:05:31;;;;;;;85.68;27.92;;;;;;;;;;5089592;28;20048;-64
2023/03/21 06:07:58;;;;;;;79.20;25.70;;;;;;;;;;5090468;28;20372;-63
2023/03/21 06:10:25;;;;;;;76.50;26.10;;;;;;;;;;5086976;28;20056;-63
2023/03/21 06:12:54;;;;;;;75.85;23.92;;;;;;;;;;5090102;28;20062;-64
2023/03/21 06:15:21;;;;;;;74.47;24.48;;;;;;;;;;5089396;28;20140;-64
2023/03/21 06:17:49;;;;;;;84.72;25.25;;;;;;;;;;5081544;28;20628;-64
2023/03/21 06:20:16;;;;;;;68.05;23.77;;;;;;;;;;5066791;28;21519;-64
2023/03/21 06:22:43;;;;;;;73.60;24.70;;;;;;;;;;5090839;28;20137;-64
2023/03/21 06:25:11;;;;;;;80.30;25.65;;;;;;;;;;5085543;28;20044;-64
2023/03/21 06:27:38;;;;;;;68.43;24.13;;;;;;;;;;5085222;28;20048;-64
2023/03/21 06:30:07;;;;;;;70.22;24.08;;;;;;;;;;5088291;28;20176;-64
2023/03/21 06:32:35;;;;;;;74.82;25.40;;;;;;;;;;5083615;28;20076;-64
2023/03/21 06:35:02;;;;;;;71.30;24.02;;;;;;;;;;5065099;28;20052;-64
2023/03/21 06:37:29;;;;;;;56.92;22.13;;;;;;;;;;5089408;28;20623;-63
2023/03/21 06:39:56;;;;;;;60.53;23.88;;;;;;;;;;5088322;28;20127;-63
2023/03/21 06:42:24;;;;;;;66.43;23.73;;;;;;;;;;5089887;28;20052;-64
2023/03/21 06:44:51;;;;;;;71.43;24.77;;;;;;;;;;5086278;28;20044;-63
2023/03/21 06:47:20;;;;;;;74.38;25.65;;;;;;;;;;5088263;28;20048;-63
2023/03/21 06:49:47;;;;;;;88.82;27.60;;;;;;;;;;5083378;28;20395;-64
2023/03/21 06:52:14;;;;;;;74.55;27.75;;;;;;;;;;5080638;28;20056;-63
2023/03/21 06:54:41;;;;;;;90.95;29.23;;;;;;;;;;5081775;28;20521;-64
2023/03/21 06:57:09;;;;;;;78.85;27.60;;;;;;;;;;5075111;28;20098;-63
2023/03/21 06:59:36;;;;;;;76.20;27.60;;;;;;;;;;5082124;28;20048;-64
2023/03/21 07:02:03;;;;;;;80.85;28.77;;;;;;;;;;5082488;28;20385;-63
2023/03/21 07:04:32;;;;;;;69.57;26.77;;;;;;;;;;5080596;28;20056;-64
2023/03/21 07:06:59;;;;;;;61.97;24.38;;;;;;;;;;5087179;28;20040;-63
2023/03/21 07:09:27;;;;;;;66.00;24.33;;;;;;;;;;5088408;28;20048;-63
2023/03/21 07:11:54;;;;;;;60.65;22.48;;;;;;;;;;5086586;28;20093;-64
2023/03/21 07:14:22;;;;;;;69.78;24.25;;;;;;;;;;5086485;28;20109;-64
2023/03/21 07:16:50;;;;;;;61.78;21.90;;;;;;;;;;5085099;28;20048;-64
2023/03/21 07:19:17;;;;;;;58.05;22.08;;;;;;;;;;5083964;28;20414;-64
2023/03/21 07:21:45;;;;;;;55.40;22.05;;;;;;;;;;5084951;28;20060;-63
2023/03/21 07:24:13;;;;;;;56.83;21.17;;;;;;;;;;5087630;28;20059;-64
2023/03/21 07:26:40;;;;;;;63.85;22.85;;;;;;;;;;5082887;28;20059;-64
2023/03/21 07:29:07;;;;;;;57.28;22.17;;;;;;;;;;5086773;28;20063;-64
2023/03/21 07:31:35;;;;;;;55.15;21.58;;;;;;;;;;5085464;28;20063;-64
2023/03/21 07:34:02;;;;;;;50.30;20.80;;;;;;;;;;5085334;28;20431;-64
2023/03/21 07:36:30;;;;;;;46.28;20.38;;;;;;;;;;5087912;28;20050;-64
2023/03/21 07:38:58;;;;;;;56.00;21.85;;;;;;;;;;5084013;28;20043;-64
2023/03/21 07:41:26;;;;;;;52.05;20.75;;;;;;;;;;5083841;28;20060;-64
2023/03/21 07:43:53;;;;;;;48.22;20.73;;;;;;;;;;5087991;28;20044;-64
2023/03/21 07:46:20;;;;;;;56.53;20.27;;;;;;;;;;5082771;28;20060;-64
2023/03/21 07:48:47;;;;;;;49.80;19.55;;;;;;;;;;5086427;28;20399;-64
2023/03/21 07:51:15;;;;;;;59.35;21.08;;;;;;;;;;5084475;28;20052;-64
2023/03/21 07:53:47;;;;;;;51.90;21.30;;;;;;;;;;5086578;28;20508;-64
2023/03/21 07:56:15;;;;;;;55.08;22.25;;;;;;;;;;5080410;28;20052;-64
2023/03/21 07:58:43;;;;;;;58.45;22.15;;;;;;;;;;5086253;28;20051;-64
2023/03/21 08:01:10;;;;;;;57.58;21.45;;;;;;;;;;5084806;28;20059;-64
2023/03/21 08:03:38;;;;;;;64.70;23.20;;;;;;;;;;5086687;28;20607;-64
2023/03/21 08:06:05;;;;;;;59.85;23.30;;;;;;;;;;5085756;28;20051;-64
2023/03/21 08:08:33;;;;;;;69.50;23.77;;;;;;;;;;5066708;28;20396;-64
2023/03/21 08:11:00;;;;;;;65.78;24.80;;;;;;;;;;5084288;28;20129;-64
2023/03/21 08:13:29;;;;;;;83.90;26.40;;;;;;;;;;5083457;28;20071;-64
2023/03/21 08:15:56;;;;;;;63.70;24.15;;;;;;;;;;5078903;28;20043;-64
2023/03/21 08:18:23;;;;;;;75.75;24.75;;;;;;;;;;5080341;28;20039;-65
2023/03/21 08:20:52;;;;;;;83.00;24.95;;;;;;;;;;5082764;28;20075;-64
2023/03/21 08:23:19;;;;;;;61.25;23.48;;;;;;;;;;5067229;28;20056;-64
2023/03/21 08:25:47;;;;;;;52.55;21.45;;;;;;;;;;5084041;28;20059;-65
2023/03/21 08:28:14;;;;;;;40.78;18.83;;;;;;;;;;5084195;28;20052;-64
2023/03/21 08:30:43;;;;;;;52.38;20.70;;;;;;;;;;5083349;28;20044;-64
2023/03/21 08:33:10;;;;;;;39.15;19.05;;;;;;;;;;5084216;28;20060;-64
2023/03/21 08:35:37;;;;;;;41.50;18.40;;;;;;;;;;5084841;28;20048;-64
2023/03/21 08:38:04;;;;;;;40.33;20.63;;;;;;;;;;5084517;28;20462;-64
2023/03/21 08:40:32;;;;;;;50.72;21.90;;;;;;;;;;5080487;28;20058;-64
2023/03/21 08:42:59;;;;;;;58.13;22.90;;;;;;;;;;5080390;28;20147;-64
2023/03/21 08:45:26;;;;;;;47.40;23.63;;;;;;;;;;5081720;28;20052;-64
2023/03/21 08:47:56;;;;;;;54.30;25.65;;;;;;;;;;5085498;28;20055;-64
2023/03/21 08:50:26;;;;;;;59.03;26.45;;;;;;;;;;5079870;28;20048;-64
2023/03/21 08:52:54;;;;;;;53.50;25.55;;;;;;;;;;5084503;28;20093;-64
2023/03/21 08:55:21;;;;;;;49.47;25.15;;;;;;;;;;5084548;28;20063;-64
2023/03/21 08:57:48;;;;;;;47.70;27.73;;;;;;;;;;5081074;28;20147;-64
2023/03/21 09:00:19;;;;;;;55.05;28.25;;;;;;;;;;5067972;28;20055;-64
2023/03/21 09:02:48;;;;;;;62.67;30.90;;;;;;;;;;5083923;28;20509;-64
2023/03/21 09:05:17;;;;;;;60.70;31.42;;;;;;;;;;5084783;28;20068;-64
2023/03/21 09:07:45;;;;;;;63.30;32.38;;;;;;;;;;5085482;28;20086;-64
2023/03/21 09:10:13;;;;;;;58.00;31.15;;;;;;;;;;5082131;28;21713;-64
2023/03/21 09:12:41;;;;;;;61.78;32.78;;;;;;;;;;5083880;28;20487;-64
2023/03/21 09:15:09;;;;;;;54.88;28.23;;;;;;;;;;5084638;28;20059;-64
2023/03/21 09:17:40;;;;;;;58.42;26.77;;;;;;;;;;5084002;28;20044;-64
2023/03/21 09:20:10;;;;;;;55.42;27.52;;;;;;;;;;5079241;28;20084;-64
2023/03/21 09:22:39;;;;;;;58.47;28.92;;;;;;;;;;5081910;28;20075;-64
2023/03/21 09:25:10;;;;;;;66.00;29.42;;;;;;;;;;5083183;28;20052;-64
2023/03/21 09:27:37;;;;;;;56.42;27.83;;;;;;;;;;5087124;28;20044;-64
2023/03/21 09:30:06;;;;;;;54.30;26.50;;;;;;;;;;5081749;28;20055;-64
2023/03/21 09:32:33;;;;;;;57.28;27.40;;;;;;;;;;5080576;28;20055;-64
2023/03/21 09:35:01;;;;;;;59.38;26.13;;;;;;;;;;5081392;28;20392;-64
2023/03/21 09:37:28;;;;;;;60.45;27.23;;;;;;;;;;5084430;28;20391;-64
2023/03/21 09:39:57;;;;;;;63.83;25.15;;;;;;;;;;5062819;28;20056;-65
2023/03/21 09:42:30;;;;;;;63.58;27.52;;;;;;;;;;5083425;28;20086;-65
2023/03/21 09:45:05;;;;;;;65.78;26.92;;;;;;;;;;5085806;28;20132;-65
2023/03/21 09:47:36;;;;;;;65.40;26.90;;;;;;;;;;5083935;28;20133;-65
2023/03/21 09:50:06;;;;;;;61.45;26.67;;;;;;;;;;5078656;28;20128;-64
2023/03/21 09:52:34;;;;;;;64.65;27.15;;;;;;;;;;5074818;28;20056;-64
2023/03/21 09:55:17;;;;;;;61.30;25.83;;;;;;;;;;5060392;28;20157;-65
2023/03/21 09:57:45;;;;;;;59.65;25.17;;;;;;;;;;5064638;28;20040;-64
2023/03/21 10:00:21;;;;;;;45.67;22.48;;;;;;;;;;5079763;28;20056;-64
2023/03/21 10:02:50;;;;;;;53.47;23.60;;;;;;;;;;5075876;28;20055;-64
2023/03/21 10:05:19;;;;;;;44.40;21.30;;;;;;;;;;5063373;28;20067;-64
2023/03/21 10:07:49;;;;;;;41.33;20.02;;;;;;;;;;5084516;28;20054;-64
2023/03/21 10:10:19;;;;;;;46.05;20.38;;;;;;;;;;5079287;28;20632;-64
2023/03/21 10:12:47;;;;;;;40.42;18.75;;;;;;;;;;5077894;28;20130;-65
2023/03/21 10:15:19;;;;;;;41.13;17.73;;;;;;;;;;5084209;28;20542;-64
2023/03/21 10:17:49;;;;;;;37.65;17.00;;;;;;;;;;5082156;28;20053;-64
2023/03/21 10:20:20;;;;;;;44.78;19.35;;;;;;;;;;5088182;28;20117;-64
2023/03/21 10:22:48;;;;;;;36.33;15.82;;;;;;;;;;5083972;28;20076;-64
2023/03/21 10:25:18;;;;;;;30.70;14.18;;;;;;;;;;5081173;28;20248;-64
2023/03/21 10:27:46;;;;;;;35.50;15.40;;;;;;;;;;5064046;28;20052;-64
2023/03/21 10:30:19;;;;;;;28.38;14.00;;;;;;;;;;5081658;28;20054;-64
2023/03/21 10:32:46;;;;;;;24.83;12.32;;;;;;;;;;5085422;28;20125;-64
2023/03/21 10:35:14;;;;;;;26.77;11.05;;;;;;;;;;5083067;28;20059;-64
2023/03/21 10:37:42;;;;;;;22.75;11.00;;;;;;;;;;5080903;28;20040;-64
2023/03/21 10:40:15;;;;;;;23.40;10.32;;;;;;;;;;5085319;28;20048;-64
2023/03/21 10:42:44;;;;;;;15.25;8.00;;;;;;;;;;5059161;28;20058;-64
2023/03/21 10:45:17;;;;;;;18.95;8.55;;;;;;;;;;5084567;28;20370;-64
2023/03/21 10:47:47;;;;;;;15.30;6.60;;;;;;;;;;5084804;28;20048;-64
2023/03/21 10:50:16;;;;;;;14.85;6.53;;;;;;;;;;5087116;28;20406;-64
2023/03/21 10:52:45;;;;;;;19.13;6.85;;;;;;;;;;5085891;28;20113;-64
2023/03/21 10:55:18;;;;;;;11.93;6.47;;;;;;;;;;5090077;28;20048;-64
2023/03/21 10:57:47;;;;;;;14.38;7.10;;;;;;;;;;5077207;28;20131;-64
2023/03/21 11:00:20;;;;;;;16.63;5.90;;;;;;;;;;5087133;28;20465;-64
2023/03/21 11:02:49;;;;;;;11.10;5.82;;;;;;;;;;5084846;28;20101;-64
2023/03/21 11:05:21;;;;;;;16.05;6.25;;;;;;;;;;5085143;28;20788;-64
2023/03/21 11:07:48;;;;;;;12.50;5.47;;;;;;;;;;5086444;28;20537;-64
2023/03/21 11:10:27;;;;;;;11.90;5.28;;;;;;;;;;5082194;28;20398;-64
2023/03/21 11:12:57;;;;;;;8.80;4.57;;;;;;;;;;5080925;28;20051;-64
2023/03/21 11:15:29;;;;;;;12.02;4.93;;;;;;;;;;5081660;28;20060;-64
2023/03/21 11:17:57;;;;;;;15.27;4.72;;;;;;;;;;5084104;28;20509;-64
2023/03/21 11:20:24;;;;;;;17.80;6.20;;;;;;;;;;5086871;28;20058;-64
2023/03/21 11:22:55;;;;;;;13.02;6.32;;;;;;;;;;5085979;28;20155;-65
2023/03/21 11:25:25;;;;;;;14.77;6.75;;;;;;;;;;5088657;28;20052;-64
2023/03/21 11:27:54;;;;;;;16.48;7.20;;;;;;;;;;5086528;28;20737;-64
2023/03/21 11:30:24;;;;;;;17.45;7.30;;;;;;;;;;5084099;28;20062;-64
2023/03/21 11:32:52;;;;;;;19.20;7.63;;;;;;;;;;5083022;28;20071;-65
2023/03/21 11:35:21;;;;;;;14.15;7.00;;;;;;;;;;5083594;28;20052;-64
2023/03/21 11:37:52;;;;;;;16.23;8.23;;;;;;;;;;5083619;28;20040;-64
2023/03/21 11:40:20;;;;;;;20.40;7.65;;;;;;;;;;5080732;28;20091;-64
2023/03/21 11:42:50;;;;;;;17.33;7.10;;;;;;;;;;5084612;28;20091;-64
2023/03/21 11:45:19;;;;;;;14.40;6.78;;;;;;;;;;5077492;28;20110;-64
2023/03/21 11:47:48;;;;;;;16.65;7.25;;;;;;;;;;5082143;28;20454;-64
2023/03/21 11:50:20;;;;;;;15.77;6.93;;;;;;;;;;5082894;28;20515;-64
2023/03/21 11:53:06;;;;;;;18.15;6.78;;;;;;;;;;5060065;28;20543;-64
2023/03/21 11:55:38;;;;;;;16.85;6.88;;;;;;;;;;5075582;28;20475;-64
2023/03/21 11:58:12;;;;;;;18.07;7.20;;;;;;;;;;5080055;28;20470;-65
2023/03/21 12:00:45;;;;;;;16.30;6.63;;;;;;;;;;5085667;28;20279;-65
2023/03/21 12:03:31;;;;;;;21.15;8.13;;;;;;;;;;5081075;28;20055;-65
2023/03/21 12:06:01;;;;;;;21.85;8.50;;;;;;;;;;5075488;28;20127;-65
2023/03/21 12:08:33;;;;;;;19.83;8.13;;;;;;;;;;5083380;28;20044;-65
2023/03/21 12:11:04;;;;;;;20.00;8.55;;;;;;;;;;5081626;28;20407;-65
2023/03/21 12:13:40;;;;;;;19.67;8.73;;;;;;;;;;5087413;28;20044;-65
2023/03/21 12:16:15;;;;;;;21.65;8.35;;;;;;;;;;5084543;28;20067;-65
2023/03/21 12:18:55;;;;;;;24.75;8.82;;;;;;;;;;5079040;28;20041;-65
2023/03/21 12:21:27;;;;;;;21.10;9.20;;;;;;;;;;5079464;28;20041;-65
2023/03/21 12:24:02;;;;;;;27.15;10.65;;;;;;;;;;5083015;28;20047;-65
2023/03/21 12:26:31;;;;;;;18.58;9.75;;;;;;;;;;5080533;28;20973;-65
2023/03/21 12:29:04;;;;;;;19.23;8.70;;;;;;;;;;5081929;28;20522;-65
2023/03/21 12:31:38;;;;;;;20.27;8.85;;;;;;;;;;5080758;28;20097;-65
2023/03/21 12:34:10;;;;;;;18.05;8.25;;;;;;;;;;5077372;28;20059;-65
2023/03/21 12:36:44;;;;;;;25.25;9.35;;;;;;;;;;5081652;28;20456;-65
2023/03/21 12:39:16;;;;;;;22.55;9.10;;;;;;;;;;5085840;28;20443;-64
2023/03/21 12:41:45;;;;;;;20.80;9.80;;;;;;;;;;5084205;28;20483;-65
2023/03/21 12:44:14;;;;;;;21.27;9.48;;;;;;;;;;5082440;28;20044;-65
2023/03/21 12:46:44;;;;;;;19.73;10.07;;;;;;;;;;5087451;28;20165;-65
2023/03/21 12:49:15;;;;;;;20.08;9.77;;;;;;;;;;5086091;28;20048;-65
2023/03/21 12:51:45;;;;;;;20.98;9.48;;;;;;;;;;5087643;28;20040;-69
2023/03/21 12:54:17;;;;;;;18.80;10.85;;;;;;;;;;5085651;28;20052;-68
2023/03/21 12:56:48;;;;;;;17.25;9.20;;;;;;;;;;5085640;28;20052;-68
2023/03/21 12:59:21;;;;;;;22.88;9.98;;;;;;;;;;5085268;28;20051;-69
2023/03/21 13:01:50;;;;;;;17.55;10.38;;;;;;;;;;5087365;28;20055;-68
2023/03/21 13:04:36;;;;;;;22.42;10.18;;;;;;;;;;5086327;28;20581;-68
2023/03/21 13:07:08;;;;;;;21.60;10.88;;;;;;;;;;5065579;28;20066;-69
2023/03/21 13:09:36;;;;;;;22.83;11.15;;;;;;;;;;5076003;28;20044;-68
2023/03/21 13:12:07;;;;;;;21.75;10.80;;;;;;;;;;5084597;28;20557;-68
2023/03/21 13:14:37;;;;;;;22.52;9.82;;;;;;;;;;5086090;28;20051;-69
2023/03/21 13:17:07;;;;;;;17.38;10.80;;;;;;;;;;5084202;28;20391;-68
2023/03/21 13:19:37;;;;;;;18.02;11.07;;;;;;;;;;5082102;28;20047;-68
2023/03/21 13:22:08;;;;;;;19.55;10.98;;;;;;;;;;5081590;28;20049;-69
2023/03/21 13:24:40;;;;;;;23.40;11.82;;;;;;;;;;5065971;28;20056;-68
2023/03/21 13:27:09;;;;;;;25.35;11.88;;;;;;;;;;5082471;28;20070;-68
2023/03/21 13:29:43;;;;;;;23.60;11.13;;;;;;;;;;5084316;28;20567;-68
2023/03/21 13:32:15;;;;;;;24.42;12.18;;;;;;;;;;5084124;28;20078;-68
2023/03/21 13:34:43;;;;;;;20.60;11.45;;;;;;;;;;5082273;28;20059;-68
2023/03/21 13:37:16;;;;;;;23.35;11.75;;;;;;;;;;5083127;28;20059;-68
2023/03/21 13:39:44;;;;;;;20.10;12.15;;;;;;;;;;5086348;28;20040;-68
2023/03/21 13:42:18;;;;;;;25.20;11.95;;;;;;;;;;5084177;28;20063;-68
2023/03/21 13:44:49;;;;;;;17.20;10.88;;;;;;;;;;5081599;28;20055;-69
2023/03/21 13:47:49;;;;;;;19.30;11.15;;;;;;;;;;5085528;28;20079;-68
2023/03/21 13:50:24;;;;;;;30.42;13.02;;;;;;;;;;4999522;28;20062;-68
2023/03/21 13:53:10;;;;;;;18.25;11.90;;;;;;;;;;5019612;28;20568;-68
2023/03/21 13:55:41;;;;;;;25.70;10.57;;;;;;;;;;5056343;28;20054;-68
2023/03/21 13:58:24;;;;;;;18.15;10.98;;;;;;;;;;5086090;28;20059;-68
2023/03/21 14:01:06;;;;;;;21.20;10.40;;;;;;;;;;5081475;28;20053;-68
2023/03/21 14:03:35;;;;;;;23.88;9.75;;;;;;;;;;5086883;28;20044;-68
2023/03/21 14:06:03;;;;;;;19.38;9.38;;;;;;;;;;5084330;28;20067;-68
2023/03/21 14:08:31;;;;;;;21.15;9.20;;;;;;;;;;5083623;28;20047;-68
2023/03/21 14:11:01;;;;;;;16.08;8.00;;;;;;;;;;5090847;28;20119;-68
2023/03/21 14:13:28;;;;;;;14.48;7.32;;;;;;;;;;5090780;28;20482;-68
2023/03/21 14:15:58;;;;;;;18.80;6.75;;;;;;;;;;5087443;28;20036;-69
2023/03/21 14:18:26;;;;;;;13.55;5.80;;;;;;;;;;5088814;28;20044;-68
2023/03/21 14:20:54;;;;;;;12.70;4.97;;;;;;;;;;5090073;28;20044;-69
2023/03/21 14:23:21;;;;;;;13.50;5.57;;;;;;;;;;5086477;28;20059;-68
2023/03/21 14:25:49;;;;;;;12.90;5.57;;;;;;;;;;5090667;28;20392;-68
2023/03/21 14:28:19;;;;;;;14.43;5.57;;;;;;;;;;5091579;28;20441;-68
2023/03/21 14:30:50;;;;;;;13.88;5.13;;;;;;;;;;5086217;28;20075;-68